sensor_id;sensor_type;location;lat;lon;timestamp;P1;durP1;ratioP1;P2;durP2;ratioP2
74959;SDS011;63518;49.572;1.106;2023-04-03T00:00:33;11.32;;;5.78;;
74959;SDS011;63518;49.572;1.106;2023-04-03T00:03:00;9.38;;;4.68;;
74959;SDS011;63518;49.572;1.106;2023-04-03T00:05:27;10.10;;;5.18;;
74959;SDS011;63518;49.572;1.106;2023-04-03T00:07:54;10.63;;;4.70;;
74959;SDS011;63518;49.572;1.106;2023-04-03T00:10:21;12.40;;;5.35;;
74959;SDS011;63518;49.572;1.106;2023-04-03T00:12:48;6.28;;;3.15;;
74959;SDS011;63518;49.572;1.106;2023-04-03T00:15:15;10.82;;;4.70;;
74959;SDS011;63518;49.572;1.106;2023-04-03T00:17:43;12.07;;;6.55;;
74959;SDS011;63518;49.572;1.106;2023-04-03T00:20:10;9.90;;;4.05;;
74959;SDS011;63518;49.572;1.106;2023-04-03T00:22:37;10.32;;;4.45;;
74959;SDS011;63518;49.572;1.106;2023-04-03T00:25:04;8.40;;;4.18;;
74959;SDS011;63518;49.572;1.106;2023-04-03T00:27:31;9.23;;;4.70;;
74959;SDS011;63518;49.572;1.106;2023-04-03T00:29:58;12.10;;;4.60;;
74959;SDS011;63518;49.572;1.106;2023-04-03T00:32:24;8.98;;;4.85;;
74959;SDS011;63518;49.572;1.106;2023-04-03T00:34:51;9.25;;;4.90;;
74959;SDS011;63518;49.572;1.106;2023-04-03T00:37:18;11.43;;;5.88;;
74959;SDS011;63518;49.572;1.106;2023-04-03T00:39:45;13.38;;;6.68;;
74959;SDS011;63518;49.572;1.106;2023-04-03T00:42:12;13.50;;;6.68;;
74959;SDS011;63518;49.572;1.106;2023-04-03T00:47:07;10.77;;;5.38;;
74959;SDS011;63518;49.572;1.106;2023-04-03T00:49:36;13.60;;;6.72;;
74959;SDS011;63518;49.572;1.106;2023-04-03T00:52:05;14.15;;;7.05;;
74959;SDS011;63518;49.572;1.106;2023-04-03T00:54:40;15.85;;;7.43;;
74959;SDS011;63518;49.572;1.106;2023-04-03T00:57:08;11.38;;;5.68;;
74959;SDS011;63518;49.572;1.106;2023-04-03T00:59:41;15.10;;;8.43;;
74959;SDS011;63518;49.572;1.106;2023-04-03T01:02:11;14.60;;;7.95;;
74959;SDS011;63518;49.572;1.106;2023-04-03T01:04:38;13.80;;;6.28;;
74959;SDS011;63518;49.572;1.106;2023-04-03T01:07:22;17.60;;;9.48;;
74959;SDS011;63518;49.572;1.106;2023-04-03T01:09:55;12.88;;;6.90;;
74959;SDS011;63518;49.572;1.106;2023-04-03T01:12:25;15.57;;;7.25;;
74959;SDS011;63518;49.572;1.106;2023-04-03T01:14:58;16.42;;;7.18;;
74959;SDS011;63518;49.572;1.106;2023-04-03T01:17:34;16.25;;;8.95;;
74959;SDS011;63518;49.572;1.106;2023-04-03T01:25:36;12.85;;;6.35;;
74959;SDS011;63518;49.572;1.106;2023-04-03T01:28:14;10.48;;;5.95;;
74959;SDS011;63518;49.572;1.106;2023-04-03T01:34:12;17.35;;;6.57;;
74959;SDS011;63518;49.572;1.106;2023-04-03T01:36:39;14.88;;;6.63;;
74959;SDS011;63518;49.572;1.106;2023-04-03T01:39:35;12.90;;;5.30;;
74959;SDS011;63518;49.572;1.106;2023-04-03T01:42:02;15.30;;;7.07;;
74959;SDS011;63518;49.572;1.106;2023-04-03T01:44:30;12.45;;;6.40;;
74959;SDS011;63518;49.572;1.106;2023-04-03T01:47:02;14.05;;;7.43;;
74959;SDS011;63518;49.572;1.106;2023-04-03T01:49:39;9.70;;;4.93;;
74959;SDS011;63518;49.572;1.106;2023-04-03T01:52:05;10.13;;;4.88;;
74959;SDS011;63518;49.572;1.106;2023-04-03T01:54:32;13.60;;;7.28;;
74959;SDS011;63518;49.572;1.106;2023-04-03T01:56:59;13.68;;;5.47;;
74959;SDS011;63518;49.572;1.106;2023-04-03T01:59:26;12.15;;;6.55;;
74959;SDS011;63518;49.572;1.106;2023-04-03T02:01:53;11.38;;;6.35;;
74959;SDS011;63518;49.572;1.106;2023-04-03T02:04:20;10.93;;;5.75;;
74959;SDS011;63518;49.572;1.106;2023-04-03T02:06:47;8.75;;;4.00;;
74959;SDS011;63518;49.572;1.106;2023-04-03T02:09:14;8.68;;;4.72;;
74959;SDS011;63518;49.572;1.106;2023-04-03T02:11:41;11.45;;;5.57;;
74959;SDS011;63518;49.572;1.106;2023-04-03T02:14:07;10.80;;;5.65;;
74959;SDS011;63518;49.572;1.106;2023-04-03T02:16:34;10.82;;;5.38;;
74959;SDS011;63518;49.572;1.106;2023-04-03T02:19:01;7.10;;;3.35;;
74959;SDS011;63518;49.572;1.106;2023-04-03T02:21:28;12.55;;;5.85;;
74959;SDS011;63518;49.572;1.106;2023-04-03T02:23:55;14.68;;;5.53;;
74959;SDS011;63518;49.572;1.106;2023-04-03T02:26:22;10.30;;;4.70;;
74959;SDS011;63518;49.572;1.106;2023-04-03T02:28:49;10.93;;;4.75;;
74959;SDS011;63518;49.572;1.106;2023-04-03T02:31:16;6.03;;;2.92;;
74959;SDS011;63518;49.572;1.106;2023-04-03T02:33:44;8.45;;;3.50;;
74959;SDS011;63518;49.572;1.106;2023-04-03T02:36:11;9.57;;;4.63;;
74959;SDS011;63518;49.572;1.106;2023-04-03T02:38:38;8.57;;;4.53;;
74959;SDS011;63518;49.572;1.106;2023-04-03T02:41:06;10.75;;;5.22;;
74959;SDS011;63518;49.572;1.106;2023-04-03T02:43:35;9.65;;;4.88;;
74959;SDS011;63518;49.572;1.106;2023-04-03T02:46:02;9.55;;;4.93;;
74959;SDS011;63518;49.572;1.106;2023-04-03T02:48:29;7.40;;;3.20;;
74959;SDS011;63518;49.572;1.106;2023-04-03T02:50:56;9.80;;;5.03;;
74959;SDS011;63518;49.572;1.106;2023-04-03T02:53:23;9.35;;;3.78;;
74959;SDS011;63518;49.572;1.106;2023-04-03T02:55:50;6.95;;;3.67;;
74959;SDS011;63518;49.572;1.106;2023-04-03T02:58:17;10.60;;;4.68;;
74959;SDS011;63518;49.572;1.106;2023-04-03T03:00:44;6.15;;;3.00;;
74959;SDS011;63518;49.572;1.106;2023-04-03T03:03:11;13.88;;;5.15;;
74959;SDS011;63518;49.572;1.106;2023-04-03T03:05:39;9.95;;;3.83;;
74959;SDS011;63518;49.572;1.106;2023-04-03T03:08:06;11.20;;;5.20;;
74959;SDS011;63518;49.572;1.106;2023-04-03T03:10:33;9.50;;;4.82;;
74959;SDS011;63518;49.572;1.106;2023-04-03T03:13:00;10.45;;;4.65;;
74959;SDS011;63518;49.572;1.106;2023-04-03T03:15:27;8.20;;;4.10;;
74959;SDS011;63518;49.572;1.106;2023-04-03T03:17:54;7.80;;;4.10;;
74959;SDS011;63518;49.572;1.106;2023-04-03T03:20:21;7.82;;;4.43;;
74959;SDS011;63518;49.572;1.106;2023-04-03T03:22:48;8.82;;;3.05;;
74959;SDS011;63518;49.572;1.106;2023-04-03T03:25:15;7.85;;;2.83;;
74959;SDS011;63518;49.572;1.106;2023-04-03T03:27:41;9.60;;;3.70;;
74959;SDS011;63518;49.572;1.106;2023-04-03T03:30:08;7.10;;;2.78;;
74959;SDS011;63518;49.572;1.106;2023-04-03T03:32:35;6.75;;;3.22;;
74959;SDS011;63518;49.572;1.106;2023-04-03T03:35:02;7.05;;;3.75;;
74959;SDS011;63518;49.572;1.106;2023-04-03T03:37:29;7.10;;;3.28;;
74959;SDS011;63518;49.572;1.106;2023-04-03T03:39:56;7.45;;;3.38;;
74959;SDS011;63518;49.572;1.106;2023-04-03T03:42:23;7.53;;;3.63;;
74959;SDS011;63518;49.572;1.106;2023-04-03T03:44:50;6.97;;;4.10;;
74959;SDS011;63518;49.572;1.106;2023-04-03T03:47:18;8.48;;;3.85;;
74959;SDS011;63518;49.572;1.106;2023-04-03T03:49:45;10.20;;;4.45;;
74959;SDS011;63518;49.572;1.106;2023-04-03T03:52:12;10.50;;;4.07;;
74959;SDS011;63518;49.572;1.106;2023-04-03T03:54:39;12.45;;;4.85;;
74959;SDS011;63518;49.572;1.106;2023-04-03T03:57:06;12.23;;;4.68;;
74959;SDS011;63518;49.572;1.106;2023-04-03T03:59:33;10.27;;;4.47;;
74959;SDS011;63518;49.572;1.106;2023-04-03T04:02:00;11.75;;;4.65;;
74959;SDS011;63518;49.572;1.106;2023-04-03T04:04:27;10.55;;;4.63;;
74959;SDS011;63518;49.572;1.106;2023-04-03T04:06:54;9.88;;;4.60;;
74959;SDS011;63518;49.572;1.106;2023-04-03T04:09:21;8.02;;;3.53;;
74959;SDS011;63518;49.572;1.106;2023-04-03T04:11:48;13.57;;;5.35;;
74959;SDS011;63518;49.572;1.106;2023-04-03T04:14:14;11.45;;;5.25;;
74959;SDS011;63518;49.572;1.106;2023-04-03T04:16:42;7.43;;;4.18;;
74959;SDS011;63518;49.572;1.106;2023-04-03T04:19:09;11.38;;;4.93;;
74959;SDS011;63518;49.572;1.106;2023-04-03T04:21:39;10.77;;;4.32;;
74959;SDS011;63518;49.572;1.106;2023-04-03T04:24:13;9.93;;;4.60;;
74959;SDS011;63518;49.572;1.106;2023-04-03T04:26:40;9.77;;;3.97;;
74959;SDS011;63518;49.572;1.106;2023-04-03T04:29:08;11.45;;;4.75;;
74959;SDS011;63518;49.572;1.106;2023-04-03T04:31:36;12.15;;;4.88;;
74959;SDS011;63518;49.572;1.106;2023-04-03T04:34:03;9.45;;;4.88;;
74959;SDS011;63518;49.572;1.106;2023-04-03T04:36:30;10.75;;;4.22;;
74959;SDS011;63518;49.572;1.106;2023-04-03T04:38:57;10.25;;;5.43;;
74959;SDS011;63518;49.572;1.106;2023-04-03T04:41:24;9.82;;;4.60;;
74959;SDS011;63518;49.572;1.106;2023-04-03T04:43:52;9.93;;;5.28;;
74959;SDS011;63518;49.572;1.106;2023-04-03T04:46:19;15.27;;;5.13;;
74959;SDS011;63518;49.572;1.106;2023-04-03T04:48:46;9.98;;;4.97;;
74959;SDS011;63518;49.572;1.106;2023-04-03T04:51:13;9.38;;;4.97;;
74959;SDS011;63518;49.572;1.106;2023-04-03T04:53:40;11.07;;;5.05;;
74959;SDS011;63518;49.572;1.106;2023-04-03T04:56:08;11.95;;;5.45;;
74959;SDS011;63518;49.572;1.106;2023-04-03T04:58:35;9.57;;;4.50;;
74959;SDS011;63518;49.572;1.106;2023-04-03T05:01:05;7.50;;;4.28;;
74959;SDS011;63518;49.572;1.106;2023-04-03T05:03:34;11.65;;;4.70;;
74959;SDS011;63518;49.572;1.106;2023-04-03T05:06:01;10.10;;;4.85;;
74959;SDS011;63518;49.572;1.106;2023-04-03T05:08:28;8.80;;;4.22;;
74959;SDS011;63518;49.572;1.106;2023-04-03T05:10:54;7.45;;;4.22;;
74959;SDS011;63518;49.572;1.106;2023-04-03T05:13:21;13.18;;;5.43;;
74959;SDS011;63518;49.572;1.106;2023-04-03T05:15:48;10.63;;;4.13;;
74959;SDS011;63518;49.572;1.106;2023-04-03T05:18:15;9.40;;;4.82;;
74959;SDS011;63518;49.572;1.106;2023-04-03T05:20:42;12.07;;;4.13;;
74959;SDS011;63518;49.572;1.106;2023-04-03T05:23:10;10.77;;;5.18;;
74959;SDS011;63518;49.572;1.106;2023-04-03T05:25:38;11.40;;;4.43;;
74959;SDS011;63518;49.572;1.106;2023-04-03T05:28:05;9.48;;;4.20;;
74959;SDS011;63518;49.572;1.106;2023-04-03T05:30:32;15.48;;;6.93;;
74959;SDS011;63518;49.572;1.106;2023-04-03T05:32:59;12.52;;;5.65;;
74959;SDS011;63518;49.572;1.106;2023-04-03T05:35:26;12.15;;;4.78;;
74959;SDS011;63518;49.572;1.106;2023-04-03T05:37:53;9.93;;;4.90;;
74959;SDS011;63518;49.572;1.106;2023-04-03T05:40:21;10.57;;;4.47;;
74959;SDS011;63518;49.572;1.106;2023-04-03T05:42:48;10.60;;;4.97;;
74959;SDS011;63518;49.572;1.106;2023-04-03T05:45:15;9.70;;;4.47;;
74959;SDS011;63518;49.572;1.106;2023-04-03T05:47:42;10.90;;;4.20;;
74959;SDS011;63518;49.572;1.106;2023-04-03T05:50:09;7.78;;;3.42;;
74959;SDS011;63518;49.572;1.106;2023-04-03T05:52:36;10.60;;;5.20;;
74959;SDS011;63518;49.572;1.106;2023-04-03T05:55:06;13.60;;;5.32;;
74959;SDS011;63518;49.572;1.106;2023-04-03T05:57:34;11.52;;;4.53;;
74959;SDS011;63518;49.572;1.106;2023-04-03T06:00:01;10.75;;;4.80;;
74959;SDS011;63518;49.572;1.106;2023-04-03T06:02:28;13.95;;;5.82;;
74959;SDS011;63518;49.572;1.106;2023-04-03T06:04:55;10.27;;;5.13;;
74959;SDS011;63518;49.572;1.106;2023-04-03T06:07:23;9.98;;;4.90;;
74959;SDS011;63518;49.572;1.106;2023-04-03T06:09:56;10.00;;;5.15;;
74959;SDS011;63518;49.572;1.106;2023-04-03T06:12:23;15.00;;;5.47;;
74959;SDS011;63518;49.572;1.106;2023-04-03T06:14:50;13.55;;;5.50;;
74959;SDS011;63518;49.572;1.106;2023-04-03T06:17:17;12.40;;;5.13;;
74959;SDS011;63518;49.572;1.106;2023-04-03T06:19:45;12.77;;;5.38;;
74959;SDS011;63518;49.572;1.106;2023-04-03T06:22:12;11.25;;;5.18;;
74959;SDS011;63518;49.572;1.106;2023-04-03T06:24:39;8.93;;;5.25;;
74959;SDS011;63518;49.572;1.106;2023-04-03T06:27:06;11.63;;;4.93;;
74959;SDS011;63518;49.572;1.106;2023-04-03T06:29:34;10.52;;;4.35;;
74959;SDS011;63518;49.572;1.106;2023-04-03T06:32:01;14.90;;;5.65;;
74959;SDS011;63518;49.572;1.106;2023-04-03T06:34:28;9.85;;;5.05;;
74959;SDS011;63518;49.572;1.106;2023-04-03T06:36:55;15.50;;;6.53;;
74959;SDS011;63518;49.572;1.106;2023-04-03T06:39:22;12.82;;;5.00;;
74959;SDS011;63518;49.572;1.106;2023-04-03T06:41:51;13.15;;;5.50;;
74959;SDS011;63518;49.572;1.106;2023-04-03T06:44:19;13.52;;;5.38;;
74959;SDS011;63518;49.572;1.106;2023-04-03T06:46:46;12.00;;;6.00;;
74959;SDS011;63518;49.572;1.106;2023-04-03T06:49:13;11.60;;;5.30;;
74959;SDS011;63518;49.572;1.106;2023-04-03T06:51:40;11.70;;;4.38;;
74959;SDS011;63518;49.572;1.106;2023-04-03T06:54:07;12.93;;;5.65;;
74959;SDS011;63518;49.572;1.106;2023-04-03T06:56:34;12.70;;;6.15;;
74959;SDS011;63518;49.572;1.106;2023-04-03T06:59:01;13.88;;;5.47;;
74959;SDS011;63518;49.572;1.106;2023-04-03T07:01:29;14.45;;;5.97;;
74959;SDS011;63518;49.572;1.106;2023-04-03T07:03:56;10.93;;;5.20;;
74959;SDS011;63518;49.572;1.106;2023-04-03T07:06:24;13.63;;;5.38;;
74959;SDS011;63518;49.572;1.106;2023-04-03T07:08:54;16.92;;;7.53;;
74959;SDS011;63518;49.572;1.106;2023-04-03T07:11:21;15.77;;;6.15;;
74959;SDS011;63518;49.572;1.106;2023-04-03T07:13:49;15.82;;;6.45;;
74959;SDS011;63518;49.572;1.106;2023-04-03T07:16:16;15.10;;;6.78;;
74959;SDS011;63518;49.572;1.106;2023-04-03T07:18:43;16.08;;;6.82;;
74959;SDS011;63518;49.572;1.106;2023-04-03T07:21:11;10.63;;;5.00;;
74959;SDS011;63518;49.572;1.106;2023-04-03T07:23:38;14.00;;;7.30;;
74959;SDS011;63518;49.572;1.106;2023-04-03T07:26:05;19.77;;;8.73;;
74959;SDS011;63518;49.572;1.106;2023-04-03T07:28:33;13.63;;;6.43;;
74959;SDS011;63518;49.572;1.106;2023-04-03T07:33:28;18.50;;;8.52;;
74959;SDS011;63518;49.572;1.106;2023-04-03T07:35:56;16.67;;;7.97;;
74959;SDS011;63518;49.572;1.106;2023-04-03T07:38:23;17.65;;;8.10;;
74959;SDS011;63518;49.572;1.106;2023-04-03T07:40:50;17.58;;;8.38;;
74959;SDS011;63518;49.572;1.106;2023-04-03T07:43:19;20.63;;;9.45;;
74959;SDS011;63518;49.572;1.106;2023-04-03T07:45:48;19.20;;;9.52;;
74959;SDS011;63518;49.572;1.106;2023-04-03T07:48:19;17.08;;;8.95;;
74959;SDS011;63518;49.572;1.106;2023-04-03T07:50:47;16.25;;;7.40;;
74959;SDS011;63518;49.572;1.106;2023-04-03T07:53:14;25.42;;;10.45;;
74959;SDS011;63518;49.572;1.106;2023-04-03T07:55:41;23.02;;;10.25;;
74959;SDS011;63518;49.572;1.106;2023-04-03T07:58:16;18.45;;;8.13;;
74959;SDS011;63518;49.572;1.106;2023-04-03T08:00:44;18.67;;;8.02;;
74959;SDS011;63518;49.572;1.106;2023-04-03T08:03:12;23.08;;;10.85;;
74959;SDS011;63518;49.572;1.106;2023-04-03T08:05:40;23.10;;;9.88;;
74959;SDS011;63518;49.572;1.106;2023-04-03T08:08:09;12.85;;;5.78;;
74959;SDS011;63518;49.572;1.106;2023-04-03T08:10:40;19.15;;;9.57;;
74959;SDS011;63518;49.572;1.106;2023-04-03T08:13:08;7.65;;;3.50;;
74959;SDS011;63518;49.572;1.106;2023-04-03T08:15:36;13.90;;;6.55;;
74959;SDS011;63518;49.572;1.106;2023-04-03T08:18:03;17.00;;;6.82;;
74959;SDS011;63518;49.572;1.106;2023-04-03T08:20:30;12.35;;;6.68;;
74959;SDS011;63518;49.572;1.106;2023-04-03T08:22:57;19.17;;;6.57;;
74959;SDS011;63518;49.572;1.106;2023-04-03T08:25:24;17.67;;;8.73;;
74959;SDS011;63518;49.572;1.106;2023-04-03T08:27:51;20.95;;;9.73;;
74959;SDS011;63518;49.572;1.106;2023-04-03T08:30:18;17.67;;;8.40;;
74959;SDS011;63518;49.572;1.106;2023-04-03T08:32:45;17.60;;;8.93;;
74959;SDS011;63518;49.572;1.106;2023-04-03T08:35:12;21.30;;;10.40;;
74959;SDS011;63518;49.572;1.106;2023-04-03T08:37:39;16.67;;;7.90;;
74959;SDS011;63518;49.572;1.106;2023-04-03T08:40:07;17.45;;;8.93;;
74959;SDS011;63518;49.572;1.106;2023-04-03T08:48:06;14.65;;;7.35;;
74959;SDS011;63518;49.572;1.106;2023-04-03T08:50:40;4.43;;;2.08;;
74959;SDS011;63518;49.572;1.106;2023-04-03T08:53:13;13.88;;;5.72;;
74959;SDS011;63518;49.572;1.106;2023-04-03T08:55:43;18.10;;;8.40;;
74959;SDS011;63518;49.572;1.106;2023-04-03T08:58:15;16.45;;;8.88;;
74959;SDS011;63518;49.572;1.106;2023-04-03T09:01:02;11.05;;;6.07;;
74959;SDS011;63518;49.572;1.106;2023-04-03T09:03:32;14.90;;;8.07;;
74959;SDS011;63518;49.572;1.106;2023-04-03T09:06:03;15.77;;;8.77;;
74959;SDS011;63518;49.572;1.106;2023-04-03T09:11:44;15.02;;;8.18;;
74959;SDS011;63518;49.572;1.106;2023-04-03T09:17:42;14.25;;;8.10;;
74959;SDS011;63518;49.572;1.106;2023-04-03T09:26:04;15.27;;;7.95;;
74959;SDS011;63518;49.572;1.106;2023-04-03T09:28:37;6.70;;;3.30;;
74959;SDS011;63518;49.572;1.106;2023-04-03T09:31:20;16.05;;;8.63;;
74959;SDS011;63518;49.572;1.106;2023-04-03T09:33:50;15.55;;;8.52;;
74959;SDS011;63518;49.572;1.106;2023-04-03T09:36:40;11.50;;;6.43;;
74959;SDS011;63518;49.572;1.106;2023-04-03T09:39:15;13.30;;;6.63;;
74959;SDS011;63518;49.572;1.106;2023-04-03T09:44:35;9.32;;;5.45;;
74959;SDS011;63518;49.572;1.106;2023-04-03T09:47:21;11.00;;;5.15;;
74959;SDS011;63518;49.572;1.106;2023-04-03T09:50:08;11.57;;;5.18;;
74959;SDS011;63518;49.572;1.106;2023-04-03T09:52:43;9.13;;;4.20;;
74959;SDS011;63518;49.572;1.106;2023-04-03T09:55:21;10.93;;;4.95;;
74959;SDS011;63518;49.572;1.106;2023-04-03T09:57:54;10.00;;;4.60;;
74959;SDS011;63518;49.572;1.106;2023-04-03T10:03:04;12.43;;;5.78;;
74959;SDS011;63518;49.572;1.106;2023-04-03T10:05:33;12.65;;;6.25;;
74959;SDS011;63518;49.572;1.106;2023-04-03T10:08:11;9.07;;;5.53;;
74959;SDS011;63518;49.572;1.106;2023-04-03T10:10:48;10.95;;;5.78;;
74959;SDS011;63518;49.572;1.106;2023-04-03T10:13:31;10.15;;;5.10;;
74959;SDS011;63518;49.572;1.106;2023-04-03T10:16:09;8.35;;;3.38;;
74959;SDS011;63518;49.572;1.106;2023-04-03T10:18:44;8.85;;;4.07;;
74959;SDS011;63518;49.572;1.106;2023-04-03T10:23:54;11.25;;;5.20;;
74959;SDS011;63518;49.572;1.106;2023-04-03T10:26:37;10.32;;;4.20;;
74959;SDS011;63518;49.572;1.106;2023-04-03T10:29:16;9.15;;;3.33;;
74959;SDS011;63518;49.572;1.106;2023-04-03T10:34:43;7.10;;;2.47;;
74959;SDS011;63518;49.572;1.106;2023-04-03T10:37:24;9.77;;;5.10;;
74959;SDS011;63518;49.572;1.106;2023-04-03T10:42:45;9.03;;;4.77;;
74959;SDS011;63518;49.572;1.106;2023-04-03T10:48:26;9.27;;;4.72;;
74959;SDS011;63518;49.572;1.106;2023-04-03T10:51:29;8.70;;;4.70;;
74959;SDS011;63518;49.572;1.106;2023-04-03T10:56:50;9.10;;;5.30;;
74959;SDS011;63518;49.572;1.106;2023-04-03T11:05:02;7.17;;;3.40;;
74959;SDS011;63518;49.572;1.106;2023-04-03T11:07:40;8.27;;;4.65;;
74959;SDS011;63518;49.572;1.106;2023-04-03T11:10:11;9.18;;;5.05;;
74959;SDS011;63518;49.572;1.106;2023-04-03T11:12:44;8.38;;;4.90;;
74959;SDS011;63518;49.572;1.106;2023-04-03T11:15:15;9.07;;;4.82;;
74959;SDS011;63518;49.572;1.106;2023-04-03T11:20:28;7.93;;;4.63;;
74959;SDS011;63518;49.572;1.106;2023-04-03T11:25:38;8.05;;;4.13;;
74959;SDS011;63518;49.572;1.106;2023-04-03T11:28:14;7.97;;;4.30;;
74959;SDS011;63518;49.572;1.106;2023-04-03T11:33:28;7.55;;;3.92;;
74959;SDS011;63518;49.572;1.106;2023-04-03T11:36:07;7.75;;;4.70;;
74959;SDS011;63518;49.572;1.106;2023-04-03T11:38:54;7.53;;;3.88;;
74959;SDS011;63518;49.572;1.106;2023-04-03T11:41:25;6.90;;;3.90;;
74959;SDS011;63518;49.572;1.106;2023-04-03T11:43:55;6.85;;;3.58;;
74959;SDS011;63518;49.572;1.106;2023-04-03T11:57:47;7.50;;;3.60;;
74959;SDS011;63518;49.572;1.106;2023-04-03T12:13:38;7.57;;;3.58;;
74959;SDS011;63518;49.572;1.106;2023-04-03T12:21:16;7.38;;;3.38;;
74959;SDS011;63518;49.572;1.106;2023-04-03T12:29:17;6.05;;;2.83;;
74959;SDS011;63518;49.572;1.106;2023-04-03T12:45:21;6.43;;;2.83;;
74959;SDS011;63518;49.572;1.106;2023-04-03T12:47:53;6.65;;;3.08;;
74959;SDS011;63518;49.572;1.106;2023-04-03T12:50:27;7.50;;;3.47;;
74959;SDS011;63518;49.572;1.106;2023-04-03T12:52:59;7.35;;;2.97;;
74959;SDS011;63518;49.572;1.106;2023-04-03T12:55:30;7.10;;;3.17;;
74959;SDS011;63518;49.572;1.106;2023-04-03T12:57:57;7.20;;;3.45;;
74959;SDS011;63518;49.572;1.106;2023-04-03T13:00:39;7.15;;;3.35;;
74959;SDS011;63518;49.572;1.106;2023-04-03T13:03:06;7.75;;;3.78;;
74959;SDS011;63518;49.572;1.106;2023-04-03T13:05:49;7.85;;;3.17;;
74959;SDS011;63518;49.572;1.106;2023-04-03T13:08:17;7.32;;;3.50;;
74959;SDS011;63518;49.572;1.106;2023-04-03T13:11:00;6.40;;;3.50;;
74959;SDS011;63518;49.572;1.106;2023-04-03T13:13:29;7.25;;;2.92;;
74959;SDS011;63518;49.572;1.106;2023-04-03T13:15:56;6.73;;;3.20;;
74959;SDS011;63518;49.572;1.106;2023-04-03T13:18:23;6.88;;;3.25;;
74959;SDS011;63518;49.572;1.106;2023-04-03T13:20:59;7.85;;;3.30;;
74959;SDS011;63518;49.572;1.106;2023-04-03T13:23:38;10.27;;;3.90;;
74959;SDS011;63518;49.572;1.106;2023-04-03T13:26:09;17.95;;;4.82;;
74959;SDS011;63518;49.572;1.106;2023-04-03T13:28:36;10.07;;;3.33;;
74959;SDS011;63518;49.572;1.106;2023-04-03T13:31:07;8.43;;;3.50;;
74959;SDS011;63518;49.572;1.106;2023-04-03T13:33:36;9.50;;;3.47;;
74959;SDS011;63518;49.572;1.106;2023-04-03T13:36:18;6.95;;;3.03;;
74959;SDS011;63518;49.572;1.106;2023-04-03T13:39:07;6.88;;;3.10;;
74959;SDS011;63518;49.572;1.106;2023-04-03T13:41:51;10.68;;;4.70;;
74959;SDS011;63518;49.572;1.106;2023-04-03T13:50:02;6.53;;;3.15;;
74959;SDS011;63518;49.572;1.106;2023-04-03T13:52:47;6.63;;;3.08;;
74959;SDS011;63518;49.572;1.106;2023-04-03T13:55:50;16.23;;;5.88;;
74959;SDS011;63518;49.572;1.106;2023-04-03T13:58:23;6.47;;;2.95;;
74959;SDS011;63518;49.572;1.106;2023-04-03T14:03:43;6.65;;;3.30;;
74959;SDS011;63518;49.572;1.106;2023-04-03T14:06:13;6.00;;;3.22;;
74959;SDS011;63518;49.572;1.106;2023-04-03T14:08:44;5.85;;;3.03;;
74959;SDS011;63518;49.572;1.106;2023-04-03T14:11:12;7.57;;;2.97;;
74959;SDS011;63518;49.572;1.106;2023-04-03T14:13:45;6.18;;;2.78;;
74959;SDS011;63518;49.572;1.106;2023-04-03T14:16:18;6.33;;;2.90;;
74959;SDS011;63518;49.572;1.106;2023-04-03T14:18:47;6.83;;;3.10;;
74959;SDS011;63518;49.572;1.106;2023-04-03T14:21:16;6.65;;;3.15;;
74959;SDS011;63518;49.572;1.106;2023-04-03T14:23:45;6.40;;;3.03;;
74959;SDS011;63518;49.572;1.106;2023-04-03T14:26:16;6.60;;;3.05;;
74959;SDS011;63518;49.572;1.106;2023-04-03T14:28:45;6.90;;;2.83;;
74959;SDS011;63518;49.572;1.106;2023-04-03T14:31:14;6.53;;;2.97;;
74959;SDS011;63518;49.572;1.106;2023-04-03T14:33:42;7.15;;;2.88;;
74959;SDS011;63518;49.572;1.106;2023-04-03T14:36:16;5.35;;;2.70;;
74959;SDS011;63518;49.572;1.106;2023-04-03T14:38:46;6.32;;;2.80;;
74959;SDS011;63518;49.572;1.106;2023-04-03T14:41:14;6.47;;;2.90;;
74959;SDS011;63518;49.572;1.106;2023-04-03T14:43:44;8.20;;;3.03;;
74959;SDS011;63518;49.572;1.106;2023-04-03T14:49:24;7.17;;;2.87;;
74959;SDS011;63518;49.572;1.106;2023-04-03T14:51:55;6.65;;;2.90;;
74959;SDS011;63518;49.572;1.106;2023-04-03T14:54:24;6.38;;;2.60;;
74959;SDS011;63518;49.572;1.106;2023-04-03T14:56:55;7.10;;;2.83;;
74959;SDS011;63518;49.572;1.106;2023-04-03T14:59:24;6.80;;;3.05;;
74959;SDS011;63518;49.572;1.106;2023-04-03T15:01:51;7.15;;;3.50;;
74959;SDS011;63518;49.572;1.106;2023-04-03T15:04:19;6.93;;;3.20;;
74959;SDS011;63518;49.572;1.106;2023-04-03T15:06:47;6.23;;;2.60;;
74959;SDS011;63518;49.572;1.106;2023-04-03T15:09:25;6.88;;;2.72;;
74959;SDS011;63518;49.572;1.106;2023-04-03T15:11:54;6.90;;;3.17;;
74959;SDS011;63518;49.572;1.106;2023-04-03T15:14:21;5.80;;;3.13;;
74959;SDS011;63518;49.572;1.106;2023-04-03T15:17:05;6.55;;;3.40;;
74959;SDS011;63518;49.572;1.106;2023-04-03T15:19:41;6.40;;;3.03;;
74959;SDS011;63518;49.572;1.106;2023-04-03T15:22:14;6.38;;;3.20;;
74959;SDS011;63518;49.572;1.106;2023-04-03T15:24:43;7.30;;;3.13;;
74959;SDS011;63518;49.572;1.106;2023-04-03T15:27:11;6.22;;;3.10;;
74959;SDS011;63518;49.572;1.106;2023-04-03T15:29:39;7.35;;;3.83;;
74959;SDS011;63518;49.572;1.106;2023-04-03T15:32:08;7.60;;;3.25;;
74959;SDS011;63518;49.572;1.106;2023-04-03T15:34:36;7.75;;;3.70;;
74959;SDS011;63518;49.572;1.106;2023-04-03T15:37:03;7.53;;;3.28;;
74959;SDS011;63518;49.572;1.106;2023-04-03T15:39:30;6.32;;;3.25;;
74959;SDS011;63518;49.572;1.106;2023-04-03T15:41:57;7.55;;;3.55;;
74959;SDS011;63518;49.572;1.106;2023-04-03T15:44:34;7.35;;;3.38;;
74959;SDS011;63518;49.572;1.106;2023-04-03T15:47:01;7.25;;;3.35;;
74959;SDS011;63518;49.572;1.106;2023-04-03T15:49:29;6.80;;;3.45;;
74959;SDS011;63518;49.572;1.106;2023-04-03T15:51:57;7.18;;;3.70;;
74959;SDS011;63518;49.572;1.106;2023-04-03T15:54:24;6.57;;;3.70;;
74959;SDS011;63518;49.572;1.106;2023-04-03T15:56:51;6.63;;;3.13;;
74959;SDS011;63518;49.572;1.106;2023-04-03T15:59:19;6.90;;;3.13;;
74959;SDS011;63518;49.572;1.106;2023-04-03T16:01:46;6.68;;;3.50;;
74959;SDS011;63518;49.572;1.106;2023-04-03T16:04:13;7.00;;;3.30;;
74959;SDS011;63518;49.572;1.106;2023-04-03T16:06:42;8.02;;;4.03;;
74959;SDS011;63518;49.572;1.106;2023-04-03T16:09:09;6.83;;;3.80;;
74959;SDS011;63518;49.572;1.106;2023-04-03T16:11:37;8.05;;;3.88;;
74959;SDS011;63518;49.572;1.106;2023-04-03T16:14:06;8.50;;;3.63;;
74959;SDS011;63518;49.572;1.106;2023-04-03T16:16:33;7.80;;;3.83;;
74959;SDS011;63518;49.572;1.106;2023-04-03T16:19:02;7.22;;;3.50;;
74959;SDS011;63518;49.572;1.106;2023-04-03T16:21:29;8.43;;;4.40;;
74959;SDS011;63518;49.572;1.106;2023-04-03T16:23:58;7.35;;;4.43;;
74959;SDS011;63518;49.572;1.106;2023-04-03T16:26:25;8.57;;;3.95;;
74959;SDS011;63518;49.572;1.106;2023-04-03T16:28:52;8.60;;;4.23;;
74959;SDS011;63518;49.572;1.106;2023-04-03T16:31:20;6.65;;;3.83;;
74959;SDS011;63518;49.572;1.106;2023-04-03T16:33:47;7.82;;;3.63;;
74959;SDS011;63518;49.572;1.106;2023-04-03T16:36:14;8.20;;;3.90;;
74959;SDS011;63518;49.572;1.106;2023-04-03T16:38:41;6.80;;;3.47;;
74959;SDS011;63518;49.572;1.106;2023-04-03T16:41:08;8.00;;;4.40;;
74959;SDS011;63518;49.572;1.106;2023-04-03T16:43:35;7.10;;;3.53;;
74959;SDS011;63518;49.572;1.106;2023-04-03T16:46:03;7.80;;;3.42;;
74959;SDS011;63518;49.572;1.106;2023-04-03T16:48:30;6.40;;;3.17;;
74959;SDS011;63518;49.572;1.106;2023-04-03T16:50:57;7.05;;;3.53;;
74959;SDS011;63518;49.572;1.106;2023-04-03T16:53:25;8.23;;;3.63;;
74959;SDS011;63518;49.572;1.106;2023-04-03T16:55:53;7.10;;;3.75;;
74959;SDS011;63518;49.572;1.106;2023-04-03T16:58:20;7.57;;;3.70;;
74959;SDS011;63518;49.572;1.106;2023-04-03T17:00:49;7.63;;;3.70;;